createdAt,value
2023-03-06T00:02:57.988Z,3.50
2023-03-06T00:08:00.210Z,3.65
2023-03-06T00:13:05.629Z,3.60
2023-03-06T00:18:08.475Z,3.78
2023-03-06T00:23:11.063Z,3.30
2023-03-06T00:28:15.790Z,3.17
2023-03-06T00:33:18.133Z,3.72
2023-03-06T00:38:20.282Z,3.30
2023-03-06T00:43:22.347Z,3.12
2023-03-06T00:48:24.496Z,3.35
2023-03-06T00:53:26.657Z,3.00
2023-03-06T00:58:28.753Z,2.95
2023-03-06T01:03:30.870Z,3.47
2023-03-06T01:08:33.098Z,2.75
2023-03-06T01:13:35.371Z,3.08
2023-03-06T01:18:37.853Z,2.80
2023-03-06T01:23:40.379Z,3.12
2023-03-06T01:28:42.517Z,3.13
2023-03-06T01:33:45.406Z,3.00
2023-03-06T01:38:47.531Z,2.90
2023-03-06T01:43:49.927Z,2.85
2023-03-06T01:49:00.994Z,3.20
2023-03-06T01:54:08.997Z,2.97
2023-03-06T01:59:11.319Z,3.12
2023-03-06T02:04:14.105Z,2.60
2023-03-06T02:09:16.623Z,2.67
2023-03-06T02:14:18.775Z,2.83
2023-03-06T02:19:33.427Z,3.00
2023-03-06T02:24:58.483Z,2.78
2023-03-06T02:30:00.794Z,2.53
2023-03-06T02:35:04.011Z,3.67
2023-03-06T02:40:14.585Z,2.85
2023-03-06T02:45:23.765Z,2.70
2023-03-06T02:50:25.881Z,2.90
2023-03-06T02:55:27.949Z,2.72
2023-03-06T03:00:30.956Z,2.55
2023-03-06T03:05:33.306Z,3.05
2023-03-06T03:10:35.405Z,2.80
2023-03-06T03:15:37.553Z,2.92
2023-03-06T03:20:43.276Z,3.20
2023-03-06T03:25:45.414Z,3.03
2023-03-06T03:30:47.626Z,2.80
2023-03-06T03:35:57.277Z,3.03
2023-03-06T03:41:01.650Z,2.85
2023-03-06T03:46:03.980Z,3.08
2023-03-06T03:51:12.204Z,3.03
2023-03-06T03:56:14.367Z,3.03
2023-03-06T04:01:16.473Z,3.80
2023-03-06T04:06:19.083Z,2.97
2023-03-06T04:11:21.228Z,3.40
2023-03-06T04:16:23.510Z,3.30
2023-03-06T04:21:25.987Z,2.87
2023-03-06T04:26:28.108Z,3.07
2023-03-06T04:31:30.369Z,3.28
2023-03-06T04:36:34.441Z,3.20
2023-03-06T04:41:36.598Z,3.70
2023-03-06T04:46:38.921Z,3.83
2023-03-06T04:51:41.125Z,2.97
2023-03-06T04:56:43.229Z,3.53
2023-03-06T05:01:45.420Z,3.70
2023-03-06T05:06:47.570Z,3.75
2023-03-06T05:11:49.658Z,3.30
2023-03-06T05:16:51.744Z,3.33
2023-03-06T05:21:53.880Z,3.33
2023-03-06T05:26:56.054Z,4.00
2023-03-06T05:31:58.992Z,4.12
2023-03-06T05:37:01.822Z,4.10
2023-03-06T05:42:04.186Z,4.40
2023-03-06T05:47:06.382Z,4.50
2023-03-06T05:52:09.648Z,5.43
2023-03-06T05:57:11.973Z,3.55
2023-03-06T06:02:15.405Z,4.30
2023-03-06T06:07:17.744Z,4.35
2023-03-06T06:12:20.473Z,4.20
2023-03-06T06:17:22.772Z,4.53
2023-03-06T06:22:30.945Z,4.30
2023-03-06T06:27:33.149Z,4.60
2023-03-06T06:32:36.321Z,5.50
2023-03-06T06:37:38.542Z,5.17
2023-03-06T06:42:40.900Z,5.00
2023-03-06T06:47:43.622Z,5.57
2023-03-06T06:52:45.891Z,5.07
2023-03-06T06:57:47.981Z,5.87
2023-03-06T07:02:51.279Z,6.03
2023-03-06T07:07:53.394Z,5.80
2023-03-06T07:12:56.812Z,5.85
2023-03-06T07:18:00.745Z,6.10
2023-03-06T07:23:03.891Z,6.12
2023-03-06T07:28:06.112Z,5.57
2023-03-06T07:33:08.824Z,6.72
2023-03-06T07:38:11.534Z,6.75
2023-03-06T07:43:19.512Z,6.67
2023-03-06T07:48:21.993Z,7.40
2023-03-06T07:53:24.778Z,4.70
2023-03-06T07:58:26.940Z,5.85
2023-03-06T08:03:29.164Z,5.18
2023-03-06T08:08:31.312Z,5.07
2023-03-06T08:13:33.805Z,5.53
2023-03-06T08:18:39.615Z,5.60
2023-03-06T08:23:43.067Z,4.95
2023-03-06T08:28:47.649Z,5.22
2023-03-06T08:33:49.741Z,6.30
2023-03-06T08:38:52.453Z,6.72
2023-03-06T08:43:54.651Z,6.67
2023-03-06T08:48:57.156Z,6.65
2023-03-06T08:53:59.562Z,6.47
2023-03-06T08:59:03.897Z,7.17
2023-03-06T09:04:09.235Z,7.45
2023-03-06T09:09:13.271Z,7.07
2023-03-06T09:14:15.384Z,7.72
2023-03-06T09:19:17.841Z,7.68
2023-03-06T09:24:20.102Z,7.23
2023-03-06T09:29:22.224Z,7.72
2023-03-06T09:34:24.416Z,7.53
2023-03-06T09:39:27.333Z,7.55
2023-03-06T09:44:32.430Z,8.15
2023-03-06T09:49:48.364Z,8.20
2023-03-06T09:54:57.282Z,8.82
2023-03-06T10:00:05.727Z,8.40
2023-03-06T10:05:15.495Z,8.05
2023-03-06T10:10:24.094Z,7.70
2023-03-06T10:15:32.703Z,7.80
2023-03-06T10:20:41.319Z,7.72
2023-03-06T10:26:02.347Z,8.67
2023-03-06T10:31:25.025Z,10.18
2023-03-06T10:36:28.720Z,9.57
2023-03-06T10:41:35.810Z,8.60
2023-03-06T10:46:44.529Z,8.50
2023-03-06T10:52:21.699Z,7.90
2023-03-06T10:57:31.363Z,7.20
2023-03-06T11:02:41.023Z,7.50
2023-03-06T11:08:00.267Z,7.30
2023-03-06T11:13:09.009Z,7.25
2023-03-06T11:18:11.081Z,7.70
2023-03-06T11:23:18.038Z,7.82
2023-03-06T11:28:40.863Z,7.57
2023-03-06T11:33:48.911Z,7.60
2023-03-06T11:38:53.327Z,8.10
2023-03-06T11:44:17.947Z,8.13
2023-03-06T11:49:27.642Z,8.02
2023-03-06T11:54:30.033Z,8.00
2023-03-06T11:59:55.809Z,8.83
2023-03-06T12:05:22.667Z,8.63
2023-03-06T12:10:51.734Z,8.17
2023-03-06T12:15:54.357Z,7.22
2023-03-06T12:21:18.314Z,8.55
2023-03-06T12:26:51.449Z,8.47
2023-03-06T12:32:03.541Z,8.90
2023-03-06T12:37:20.855Z,7.93
2023-03-06T12:42:25.926Z,8.32
2023-03-06T12:47:31.516Z,9.15
2023-03-06T12:52:34.703Z,9.13
2023-03-06T12:57:36.832Z,9.27
2023-03-06T13:03:14.563Z,9.30
2023-03-06T13:08:38.222Z,8.98
2023-03-06T13:13:45.780Z,9.45
2023-03-06T13:19:00.843Z,10.07
2023-03-06T13:24:06.306Z,10.40
2023-03-06T13:29:36.425Z,9.23
2023-03-06T13:34:40.486Z,9.43
2023-03-06T13:40:15.243Z,8.98
2023-03-06T13:45:27.467Z,9.80
2023-03-06T13:50:37.956Z,9.45
2023-03-06T13:55:58.718Z,9.83
2023-03-06T14:01:27.940Z,10.25
2023-03-06T14:06:36.366Z,9.73
2023-03-06T14:11:50.482Z,10.37
2023-03-06T14:16:53.687Z,11.00
2023-03-06T14:21:57.702Z,10.10
2023-03-06T14:27:00.155Z,9.05
2023-03-06T14:32:02.819Z,10.20
2023-03-06T14:37:19.124Z,10.40
2023-03-06T14:42:25.176Z,9.45
2023-03-06T14:47:33.273Z,11.00
2023-03-06T14:52:36.431Z,11.63
2023-03-06T14:57:38.734Z,9.80
2023-03-06T15:02:41.185Z,10.53
2023-03-06T15:07:43.986Z,10.93
2023-03-06T15:12:50.812Z,10.20
2023-03-06T15:17:53.522Z,9.77
2023-03-06T15:22:55.661Z,10.10
2023-03-06T15:27:59.193Z,10.57
2023-03-06T15:33:18.502Z,9.50
2023-03-06T15:38:37.042Z,9.60
2023-03-06T15:43:41.000Z,9.23
2023-03-06T15:49:04.258Z,8.52
2023-03-06T15:54:12.196Z,10.53
2023-03-06T15:59:25.998Z,9.20
2023-03-06T16:04:28.156Z,9.23
2023-03-06T16:09:30.278Z,8.40
2023-03-06T16:14:32.568Z,7.97
2023-03-06T16:19:34.780Z,7.93
2023-03-06T16:24:37.295Z,8.63
2023-03-06T16:29:40.071Z,8.57
2023-03-06T16:34:42.175Z,8.98
2023-03-06T16:39:44.781Z,9.00
2023-03-06T16:44:47.031Z,7.70
2023-03-06T16:49:49.900Z,8.88
2023-03-06T16:54:52.110Z,8.60
2023-03-06T16:59:54.195Z,9.27
2023-03-06T17:04:56.341Z,8.63
2023-03-06T17:09:58.445Z,8.47
2023-03-06T17:15:03.078Z,9.15
2023-03-06T17:20:08.119Z,9.37
2023-03-06T17:25:10.566Z,8.77
2023-03-06T17:30:16.306Z,8.80
2023-03-06T17:35:18.933Z,9.70
2023-03-06T17:40:21.054Z,10.52
2023-03-06T17:45:23.591Z,10.03
2023-03-06T17:50:25.664Z,9.98
2023-03-06T17:55:28.973Z,10.73
2023-03-06T18:00:31.178Z,11.00
2023-03-06T18:05:33.327Z,10.95
2023-03-06T18:10:38.231Z,10.30
2023-03-06T18:15:40.923Z,10.20
2023-03-06T18:20:44.712Z,10.18
2023-03-06T18:25:48.777Z,10.30
2023-03-06T18:30:50.911Z,10.40
2023-03-06T18:35:53.619Z,9.60
2023-03-06T18:40:55.800Z,9.77
2023-03-06T18:45:58.644Z,10.00
2023-03-06T18:51:09.271Z,11.77
2023-03-06T18:56:22.030Z,10.95
2023-03-06T19:01:30.871Z,10.87
2023-03-06T19:06:33.290Z,10.82
2023-03-06T19:11:38.195Z,10.40
2023-03-06T19:16:40.881Z,10.90
2023-03-06T19:21:45.464Z,10.73
2023-03-06T19:26:47.679Z,10.67
2023-03-06T19:31:52.455Z,10.48
2023-03-06T19:36:55.079Z,10.75
2023-03-06T19:41:57.316Z,10.10
2023-03-06T19:46:59.545Z,11.30
2023-03-06T19:52:02.132Z,11.20
2023-03-06T19:57:04.282Z,11.68
2023-03-06T20:02:06.686Z,12.18
2023-03-06T20:07:08.906Z,11.30
2023-03-06T20:12:11.105Z,12.13
2023-03-06T20:17:13.295Z,12.37
2023-03-06T20:22:15.591Z,12.02
2023-03-06T20:27:17.830Z,11.35
2023-03-06T20:32:20.068Z,12.23
2023-03-06T20:37:22.227Z,12.88
2023-03-06T20:42:24.350Z,13.27
2023-03-06T20:47:27.010Z,12.73
2023-03-06T20:52:29.257Z,13.20
2023-03-06T20:57:31.366Z,13.17
2023-03-06T21:02:33.568Z,12.90
2023-03-06T21:07:36.043Z,13.67
2023-03-06T21:12:38.120Z,13.85
2023-03-06T21:17:40.190Z,13.45
2023-03-06T21:22:42.256Z,13.00
2023-03-06T21:27:44.405Z,13.00
2023-03-06T21:32:46.796Z,13.50
2023-03-06T21:37:49.246Z,14.23
2023-03-06T21:42:51.715Z,13.73
2023-03-06T21:47:53.857Z,12.33
2023-03-06T21:52:59.116Z,13.02
2023-03-06T21:58:01.562Z,14.03
2023-03-06T22:03:04.910Z,13.80
2023-03-06T22:08:07.140Z,14.98
2023-03-06T22:13:11.282Z,12.83
2023-03-06T22:18:15.955Z,14.38
2023-03-06T22:23:18.617Z,13.70
2023-03-06T22:29:03.298Z,14.85
2023-03-06T22:34:10.396Z,14.68
2023-03-06T22:39:17.650Z,14.37
2023-03-06T22:44:32.424Z,15.45
2023-03-06T23:20:52.061Z,13.93
2023-03-06T23:26:02.052Z,14.05
2023-03-06T23:31:15.318Z,13.55
2023-03-06T23:36:18.758Z,14.73
2023-03-06T23:41:24.089Z,15.02
2023-03-06T23:46:26.562Z,14.20
2023-03-06T23:51:28.705Z,15.52
2023-03-06T23:56:30.860Z,15.82
